sensor_id;sensor_type;location;lat;lon;timestamp;P1;durP1;ratioP1;P2;durP2;ratioP2
81160;SDS011;70637;48.514;14.500;2024-01-06T00:01:00;5.88;;;3.30;;
81160;SDS011;70637;48.514;14.500;2024-01-06T00:03:25;5.10;;;3.60;;
81160;SDS011;70637;48.514;14.500;2024-01-06T00:05:51;5.55;;;3.28;;
81160;SDS011;70637;48.514;14.500;2024-01-06T00:08:17;5.00;;;3.40;;
81160;SDS011;70637;48.514;14.500;2024-01-06T00:10:43;5.90;;;3.45;;
81160;SDS011;70637;48.514;14.500;2024-01-06T00:13:09;5.28;;;3.47;;
81160;SDS011;70637;48.514;14.500;2024-01-06T00:15:35;6.03;;;3.35;;
81160;SDS011;70637;48.514;14.500;2024-01-06T00:18:01;5.90;;;3.65;;
81160;SDS011;70637;48.514;14.500;2024-01-06T00:20:26;4.80;;;3.50;;
81160;SDS011;70637;48.514;14.500;2024-01-06T00:22:52;5.32;;;3.35;;
81160;SDS011;70637;48.514;14.500;2024-01-06T00:25:18;4.95;;;3.40;;
81160;SDS011;70637;48.514;14.500;2024-01-06T00:27:43;4.93;;;3.42;;
81160;SDS011;70637;48.514;14.500;2024-01-06T00:30:09;6.20;;;3.53;;
81160;SDS011;70637;48.514;14.500;2024-01-06T00:32:35;6.03;;;3.58;;
81160;SDS011;70637;48.514;14.500;2024-01-06T00:35:00;5.00;;;3.20;;
81160;SDS011;70637;48.514;14.500;2024-01-06T00:37:27;5.45;;;3.13;;
81160;SDS011;70637;48.514;14.500;2024-01-06T00:39:52;5.97;;;3.28;;
81160;SDS011;70637;48.514;14.500;2024-01-06T00:42:18;4.90;;;2.95;;
81160;SDS011;70637;48.514;14.500;2024-01-06T00:44:44;5.78;;;3.15;;
81160;SDS011;70637;48.514;14.500;2024-01-06T00:47:10;5.70;;;3.40;;
81160;SDS011;70637;48.514;14.500;2024-01-06T00:49:36;6.03;;;3.20;;
81160;SDS011;70637;48.514;14.500;2024-01-06T00:52:02;5.40;;;3.05;;
81160;SDS011;70637;48.514;14.500;2024-01-06T00:54:27;3.85;;;2.72;;
81160;SDS011;70637;48.514;14.500;2024-01-06T00:56:54;3.85;;;2.70;;
81160;SDS011;70637;48.514;14.500;2024-01-06T00:59:19;5.95;;;2.92;;
81160;SDS011;70637;48.514;14.500;2024-01-06T01:01:45;3.65;;;2.67;;
81160;SDS011;70637;48.514;14.500;2024-01-06T01:04:11;7.18;;;3.20;;
81160;SDS011;70637;48.514;14.500;2024-01-06T01:06:36;5.90;;;3.00;;
81160;SDS011;70637;48.514;14.500;2024-01-06T01:09:02;5.70;;;3.13;;
81160;SDS011;70637;48.514;14.500;2024-01-06T01:11:29;5.47;;;3.10;;
81160;SDS011;70637;48.514;14.500;2024-01-06T01:13:55;4.32;;;2.85;;
81160;SDS011;70637;48.514;14.500;2024-01-06T01:16:21;6.07;;;3.30;;
81160;SDS011;70637;48.514;14.500;2024-01-06T01:18:47;4.65;;;3.10;;
81160;SDS011;70637;48.514;14.500;2024-01-06T01:21:12;4.43;;;3.03;;
81160;SDS011;70637;48.514;14.500;2024-01-06T01:23:39;4.78;;;3.20;;
81160;SDS011;70637;48.514;14.500;2024-01-06T01:26:04;5.70;;;2.80;;
81160;SDS011;70637;48.514;14.500;2024-01-06T01:28:30;4.88;;;3.20;;
81160;SDS011;70637;48.514;14.500;2024-01-06T01:30:56;4.78;;;3.05;;
81160;SDS011;70637;48.514;14.500;2024-01-06T01:33:21;5.00;;;2.80;;
81160;SDS011;70637;48.514;14.500;2024-01-06T01:35:47;5.90;;;2.97;;
81160;SDS011;70637;48.514;14.500;2024-01-06T01:38:13;5.57;;;2.95;;
81160;SDS011;70637;48.514;14.500;2024-01-06T01:40:38;4.35;;;2.95;;
81160;SDS011;70637;48.514;14.500;2024-01-06T01:43:04;5.47;;;2.88;;
81160;SDS011;70637;48.514;14.500;2024-01-06T01:45:29;4.75;;;3.15;;
81160;SDS011;70637;48.514;14.500;2024-01-06T01:47:55;4.75;;;3.03;;
81160;SDS011;70637;48.514;14.500;2024-01-06T01:50:21;5.25;;;2.85;;
81160;SDS011;70637;48.514;14.500;2024-01-06T01:52:48;4.35;;;2.70;;
81160;SDS011;70637;48.514;14.500;2024-01-06T01:55:14;5.88;;;2.78;;
81160;SDS011;70637;48.514;14.500;2024-01-06T01:57:39;4.13;;;2.65;;
81160;SDS011;70637;48.514;14.500;2024-01-06T02:00:06;4.65;;;2.90;;
81160;SDS011;70637;48.514;14.500;2024-01-06T02:02:32;7.03;;;2.92;;
81160;SDS011;70637;48.514;14.500;2024-01-06T02:04:58;4.47;;;2.70;;
81160;SDS011;70637;48.514;14.500;2024-01-06T02:07:24;3.95;;;2.65;;
81160;SDS011;70637;48.514;14.500;2024-01-06T02:09:50;5.22;;;2.63;;
81160;SDS011;70637;48.514;14.500;2024-01-06T02:12:16;3.90;;;2.65;;
81160;SDS011;70637;48.514;14.500;2024-01-06T02:14:41;5.75;;;3.08;;
81160;SDS011;70637;48.514;14.500;2024-01-06T02:17:08;4.28;;;2.65;;
81160;SDS011;70637;48.514;14.500;2024-01-06T02:19:33;4.75;;;2.88;;
81160;SDS011;70637;48.514;14.500;2024-01-06T02:22:00;4.65;;;2.85;;
81160;SDS011;70637;48.514;14.500;2024-01-06T02:24:25;4.25;;;2.65;;
81160;SDS011;70637;48.514;14.500;2024-01-06T02:26:51;5.45;;;2.60;;
81160;SDS011;70637;48.514;14.500;2024-01-06T02:29:17;3.33;;;2.50;;
81160;SDS011;70637;48.514;14.500;2024-01-06T02:31:42;6.20;;;3.13;;
81160;SDS011;70637;48.514;14.500;2024-01-06T02:34:09;5.35;;;2.65;;
81160;SDS011;70637;48.514;14.500;2024-01-06T02:36:34;5.22;;;2.65;;
81160;SDS011;70637;48.514;14.500;2024-01-06T02:39:00;8.18;;;2.90;;
81160;SDS011;70637;48.514;14.500;2024-01-06T02:41:26;4.38;;;2.70;;
81160;SDS011;70637;48.514;14.500;2024-01-06T02:43:53;4.57;;;2.75;;
81160;SDS011;70637;48.514;14.500;2024-01-06T02:46:22;4.28;;;2.80;;
81160;SDS011;70637;48.514;14.500;2024-01-06T02:48:48;4.43;;;2.60;;
81160;SDS011;70637;48.514;14.500;2024-01-06T02:51:13;5.03;;;2.72;;
81160;SDS011;70637;48.514;14.500;2024-01-06T02:53:39;5.50;;;2.65;;
81160;SDS011;70637;48.514;14.500;2024-01-06T02:56:09;6.03;;;2.90;;
81160;SDS011;70637;48.514;14.500;2024-01-06T02:58:38;4.05;;;2.63;;
81160;SDS011;70637;48.514;14.500;2024-01-06T03:01:04;3.65;;;2.40;;
81160;SDS011;70637;48.514;14.500;2024-01-06T03:03:30;4.85;;;2.50;;
81160;SDS011;70637;48.514;14.500;2024-01-06T03:05:55;3.90;;;2.45;;
81160;SDS011;70637;48.514;14.500;2024-01-06T03:08:21;3.90;;;2.63;;
81160;SDS011;70637;48.514;14.500;2024-01-06T03:10:48;4.93;;;2.50;;
81160;SDS011;70637;48.514;14.500;2024-01-06T03:13:14;4.40;;;2.33;;
81160;SDS011;70637;48.514;14.500;2024-01-06T03:15:40;6.35;;;2.70;;
81160;SDS011;70637;48.514;14.500;2024-01-06T03:18:05;3.40;;;2.50;;
81160;SDS011;70637;48.514;14.500;2024-01-06T03:20:31;3.85;;;2.58;;
81160;SDS011;70637;48.514;14.500;2024-01-06T03:22:57;4.10;;;2.50;;
81160;SDS011;70637;48.514;14.500;2024-01-06T03:25:22;3.92;;;2.63;;
81160;SDS011;70637;48.514;14.500;2024-01-06T03:27:48;3.95;;;2.30;;
81160;SDS011;70637;48.514;14.500;2024-01-06T03:30:14;2.80;;;2.25;;
81160;SDS011;70637;48.514;14.500;2024-01-06T03:32:39;4.57;;;2.70;;
81160;SDS011;70637;48.514;14.500;2024-01-06T03:35:05;3.65;;;2.50;;
81160;SDS011;70637;48.514;14.500;2024-01-06T03:37:32;4.50;;;2.60;;
81160;SDS011;70637;48.514;14.500;2024-01-06T03:39:57;3.92;;;2.20;;
81160;SDS011;70637;48.514;14.500;2024-01-06T03:42:23;3.83;;;2.60;;
81160;SDS011;70637;48.514;14.500;2024-01-06T03:44:49;3.80;;;2.60;;
81160;SDS011;70637;48.514;14.500;2024-01-06T03:47:14;3.83;;;2.40;;
81160;SDS011;70637;48.514;14.500;2024-01-06T03:49:40;4.15;;;2.47;;
81160;SDS011;70637;48.514;14.500;2024-01-06T03:52:06;3.78;;;2.38;;
81160;SDS011;70637;48.514;14.500;2024-01-06T03:54:31;3.80;;;2.30;;
81160;SDS011;70637;48.514;14.500;2024-01-06T03:56:57;3.78;;;2.40;;
81160;SDS011;70637;48.514;14.500;2024-01-06T03:59:23;4.07;;;2.40;;
81160;SDS011;70637;48.514;14.500;2024-01-06T04:01:48;4.45;;;2.65;;
81160;SDS011;70637;48.514;14.500;2024-01-06T04:04:14;3.15;;;2.13;;
81160;SDS011;70637;48.514;14.500;2024-01-06T04:06:39;3.30;;;2.25;;
81160;SDS011;70637;48.514;14.500;2024-01-06T04:09:05;3.63;;;2.20;;
81160;SDS011;70637;48.514;14.500;2024-01-06T04:11:31;3.10;;;2.38;;
81160;SDS011;70637;48.514;14.500;2024-01-06T04:13:56;3.22;;;2.13;;
81160;SDS011;70637;48.514;14.500;2024-01-06T04:16:22;3.38;;;2.30;;
81160;SDS011;70637;48.514;14.500;2024-01-06T04:18:48;4.25;;;2.50;;
81160;SDS011;70637;48.514;14.500;2024-01-06T04:21:13;4.40;;;2.30;;
81160;SDS011;70637;48.514;14.500;2024-01-06T04:23:39;4.70;;;2.13;;
81160;SDS011;70637;48.514;14.500;2024-01-06T04:26:05;2.97;;;2.20;;
81160;SDS011;70637;48.514;14.500;2024-01-06T04:28:31;3.33;;;2.10;;
81160;SDS011;70637;48.514;14.500;2024-01-06T04:30:57;3.13;;;2.13;;
81160;SDS011;70637;48.514;14.500;2024-01-06T04:33:23;3.53;;;2.20;;
81160;SDS011;70637;48.514;14.500;2024-01-06T04:35:48;3.22;;;2.20;;
81160;SDS011;70637;48.514;14.500;2024-01-06T04:38:15;5.10;;;2.30;;
81160;SDS011;70637;48.514;14.500;2024-01-06T04:40:41;4.57;;;2.33;;
81160;SDS011;70637;48.514;14.500;2024-01-06T04:43:06;3.20;;;2.10;;
81160;SDS011;70637;48.514;14.500;2024-01-06T04:45:32;3.25;;;2.33;;
81160;SDS011;70637;48.514;14.500;2024-01-06T04:48:00;2.75;;;2.20;;
81160;SDS011;70637;48.514;14.500;2024-01-06T04:50:28;3.30;;;2.08;;
81160;SDS011;70637;48.514;14.500;2024-01-06T04:52:54;3.30;;;2.25;;
81160;SDS011;70637;48.514;14.500;2024-01-06T04:55:20;5.07;;;2.40;;
81160;SDS011;70637;48.514;14.500;2024-01-06T04:57:45;3.13;;;2.10;;
81160;SDS011;70637;48.514;14.500;2024-01-06T05:00:11;3.15;;;2.25;;
81160;SDS011;70637;48.514;14.500;2024-01-06T05:02:37;3.30;;;2.15;;
81160;SDS011;70637;48.514;14.500;2024-01-06T05:05:03;3.33;;;2.22;;
81160;SDS011;70637;48.514;14.500;2024-01-06T05:07:29;3.20;;;2.42;;
81160;SDS011;70637;48.514;14.500;2024-01-06T05:09:54;3.00;;;2.00;;
81160;SDS011;70637;48.514;14.500;2024-01-06T05:12:21;3.13;;;2.03;;
81160;SDS011;70637;48.514;14.500;2024-01-06T05:14:46;2.90;;;2.05;;
81160;SDS011;70637;48.514;14.500;2024-01-06T05:17:12;3.78;;;2.28;;
81160;SDS011;70637;48.514;14.500;2024-01-06T05:19:38;3.00;;;2.00;;
81160;SDS011;70637;48.514;14.500;2024-01-06T05:22:03;4.40;;;2.30;;
81160;SDS011;70637;48.514;14.500;2024-01-06T05:24:29;3.03;;;2.20;;
81160;SDS011;70637;48.514;14.500;2024-01-06T05:26:55;3.55;;;2.10;;
81160;SDS011;70637;48.514;14.500;2024-01-06T05:29:20;3.70;;;2.17;;
81160;SDS011;70637;48.514;14.500;2024-01-06T05:31:46;3.25;;;2.22;;
81160;SDS011;70637;48.514;14.500;2024-01-06T05:34:14;2.40;;;1.88;;
81160;SDS011;70637;48.514;14.500;2024-01-06T05:36:40;2.97;;;2.10;;
81160;SDS011;70637;48.514;14.500;2024-01-06T05:39:05;3.75;;;2.05;;
81160;SDS011;70637;48.514;14.500;2024-01-06T05:41:37;2.63;;;1.80;;
81160;SDS011;70637;48.514;14.500;2024-01-06T05:44:05;3.05;;;2.00;;
81160;SDS011;70637;48.514;14.500;2024-01-06T05:46:31;2.70;;;1.80;;
81160;SDS011;70637;48.514;14.500;2024-01-06T05:48:57;3.70;;;2.00;;
81160;SDS011;70637;48.514;14.500;2024-01-06T05:51:24;3.25;;;2.00;;
81160;SDS011;70637;48.514;14.500;2024-01-06T05:53:50;3.00;;;2.03;;
81160;SDS011;70637;48.514;14.500;2024-01-06T05:56:23;2.90;;;1.98;;
81160;SDS011;70637;48.514;14.500;2024-01-06T05:58:50;5.28;;;2.33;;
81160;SDS011;70637;48.514;14.500;2024-01-06T06:01:16;3.10;;;1.98;;
81160;SDS011;70637;48.514;14.500;2024-01-06T06:03:41;2.90;;;1.90;;
81160;SDS011;70637;48.514;14.500;2024-01-06T06:06:08;3.33;;;1.95;;
81160;SDS011;70637;48.514;14.500;2024-01-06T06:08:34;2.92;;;2.00;;
81160;SDS011;70637;48.514;14.500;2024-01-06T06:10:59;2.78;;;2.05;;
81160;SDS011;70637;48.514;14.500;2024-01-06T06:13:30;2.55;;;1.90;;
81160;SDS011;70637;48.514;14.500;2024-01-06T06:15:56;2.78;;;1.70;;
81160;SDS011;70637;48.514;14.500;2024-01-06T06:18:22;3.03;;;2.10;;
81160;SDS011;70637;48.514;14.500;2024-01-06T06:20:48;2.35;;;1.63;;
81160;SDS011;70637;48.514;14.500;2024-01-06T06:23:14;2.58;;;1.88;;
81160;SDS011;70637;48.514;14.500;2024-01-06T06:25:39;3.45;;;1.90;;
81160;SDS011;70637;48.514;14.500;2024-01-06T06:28:05;2.55;;;1.90;;
81160;SDS011;70637;48.514;14.500;2024-01-06T06:30:31;3.10;;;1.80;;
81160;SDS011;70637;48.514;14.500;2024-01-06T06:32:57;2.78;;;1.70;;
81160;SDS011;70637;48.514;14.500;2024-01-06T06:35:23;3.20;;;1.90;;
81160;SDS011;70637;48.514;14.500;2024-01-06T06:37:49;2.83;;;1.77;;
81160;SDS011;70637;48.514;14.500;2024-01-06T06:40:15;3.50;;;1.90;;
81160;SDS011;70637;48.514;14.500;2024-01-06T06:42:41;2.17;;;1.60;;
81160;SDS011;70637;48.514;14.500;2024-01-06T06:45:06;3.88;;;1.70;;
81160;SDS011;70637;48.514;14.500;2024-01-06T06:47:33;3.90;;;1.90;;
81160;SDS011;70637;48.514;14.500;2024-01-06T06:49:58;2.70;;;1.85;;
81160;SDS011;70637;48.514;14.500;2024-01-06T06:52:24;3.03;;;1.55;;
81160;SDS011;70637;48.514;14.500;2024-01-06T06:54:50;3.40;;;1.70;;
81160;SDS011;70637;48.514;14.500;2024-01-06T06:57:17;1.80;;;1.45;;
81160;SDS011;70637;48.514;14.500;2024-01-06T06:59:43;2.92;;;1.90;;
81160;SDS011;70637;48.514;14.500;2024-01-06T07:02:09;2.25;;;1.60;;
81160;SDS011;70637;48.514;14.500;2024-01-06T07:04:35;4.03;;;1.60;;
81160;SDS011;70637;48.514;14.500;2024-01-06T07:07:01;3.20;;;1.73;;
81160;SDS011;70637;48.514;14.500;2024-01-06T07:09:27;3.10;;;1.55;;
81160;SDS011;70637;48.514;14.500;2024-01-06T07:11:53;3.58;;;1.80;;
81160;SDS011;70637;48.514;14.500;2024-01-06T07:14:19;2.72;;;1.67;;
81160;SDS011;70637;48.514;14.500;2024-01-06T07:16:44;3.63;;;1.70;;
81160;SDS011;70637;48.514;14.500;2024-01-06T07:19:10;6.60;;;1.70;;
81160;SDS011;70637;48.514;14.500;2024-01-06T07:21:36;5.80;;;1.60;;
81160;SDS011;70637;48.514;14.500;2024-01-06T07:24:02;2.95;;;1.80;;
81160;SDS011;70637;48.514;14.500;2024-01-06T07:26:28;2.95;;;1.80;;
81160;SDS011;70637;48.514;14.500;2024-01-06T07:28:53;7.75;;;1.63;;
81160;SDS011;70637;48.514;14.500;2024-01-06T07:31:19;6.72;;;1.90;;
81160;SDS011;70637;48.514;14.500;2024-01-06T07:33:45;7.50;;;2.13;;
81160;SDS011;70637;48.514;14.500;2024-01-06T07:36:11;6.03;;;1.92;;
81160;SDS011;70637;48.514;14.500;2024-01-06T07:38:37;6.28;;;1.77;;
81160;SDS011;70637;48.514;14.500;2024-01-06T07:41:02;3.85;;;1.80;;
81160;SDS011;70637;48.514;14.500;2024-01-06T07:43:29;4.45;;;1.92;;
81160;SDS011;70637;48.514;14.500;2024-01-06T07:45:55;4.10;;;1.83;;
81160;SDS011;70637;48.514;14.500;2024-01-06T07:48:21;3.00;;;1.92;;
81160;SDS011;70637;48.514;14.500;2024-01-06T07:50:47;5.68;;;2.20;;
81160;SDS011;70637;48.514;14.500;2024-01-06T07:53:13;6.95;;;1.85;;
81160;SDS011;70637;48.514;14.500;2024-01-06T07:55:42;3.28;;;2.00;;
81160;SDS011;70637;48.514;14.500;2024-01-06T07:58:07;5.28;;;2.17;;
81160;SDS011;70637;48.514;14.500;2024-01-06T08:00:33;5.95;;;2.40;;
81160;SDS011;70637;48.514;14.500;2024-01-06T08:02:59;5.03;;;2.20;;
81160;SDS011;70637;48.514;14.500;2024-01-06T08:05:25;7.28;;;2.80;;
81160;SDS011;70637;48.514;14.500;2024-01-06T08:07:51;4.97;;;2.45;;
81160;SDS011;70637;48.514;14.500;2024-01-06T08:10:17;7.78;;;2.25;;
81160;SDS011;70637;48.514;14.500;2024-01-06T08:12:42;8.20;;;2.33;;
81160;SDS011;70637;48.514;14.500;2024-01-06T08:15:08;4.53;;;2.38;;
81160;SDS011;70637;48.514;14.500;2024-01-06T08:17:35;5.00;;;2.30;;
81160;SDS011;70637;48.514;14.500;2024-01-06T08:20:01;5.18;;;2.20;;
81160;SDS011;70637;48.514;14.500;2024-01-06T08:22:28;4.90;;;2.30;;
81160;SDS011;70637;48.514;14.500;2024-01-06T08:24:54;10.18;;;2.65;;
81160;SDS011;70637;48.514;14.500;2024-01-06T08:35:42;9.50;;;2.60;;
81160;SDS011;70637;48.514;14.500;2024-01-06T08:38:09;8.45;;;2.50;;
81160;SDS011;70637;48.514;14.500;2024-01-06T08:40:35;8.50;;;2.35;;
81160;SDS011;70637;48.514;14.500;2024-01-06T08:43:01;11.30;;;2.60;;
81160;SDS011;70637;48.514;14.500;2024-01-06T08:45:27;11.40;;;2.47;;
81160;SDS011;70637;48.514;14.500;2024-01-06T08:47:53;10.18;;;2.35;;
81160;SDS011;70637;48.514;14.500;2024-01-06T08:50:18;5.95;;;2.28;;
81160;SDS011;70637;48.514;14.500;2024-01-06T08:52:44;9.57;;;2.67;;
81160;SDS011;70637;48.514;14.500;2024-01-06T08:55:09;7.50;;;2.20;;
81160;SDS011;70637;48.514;14.500;2024-01-06T08:57:35;10.02;;;2.53;;
81160;SDS011;70637;48.514;14.500;2024-01-06T09:00:02;7.70;;;2.85;;
81160;SDS011;70637;48.514;14.500;2024-01-06T09:02:29;7.70;;;2.10;;
81160;SDS011;70637;48.514;14.500;2024-01-06T09:04:54;6.68;;;2.40;;
81160;SDS011;70637;48.514;14.500;2024-01-06T09:07:20;8.85;;;2.45;;
81160;SDS011;70637;48.514;14.500;2024-01-06T09:09:45;6.53;;;2.38;;
81160;SDS011;70637;48.514;14.500;2024-01-06T09:12:11;6.28;;;2.60;;
81160;SDS011;70637;48.514;14.500;2024-01-06T09:14:37;8.35;;;2.67;;
81160;SDS011;70637;48.514;14.500;2024-01-06T09:17:02;9.30;;;2.15;;
81160;SDS011;70637;48.514;14.500;2024-01-06T09:19:29;7.30;;;2.40;;
81160;SDS011;70637;48.514;14.500;2024-01-06T09:21:55;10.82;;;2.10;;
81160;SDS011;70637;48.514;14.500;2024-01-06T09:24:21;7.80;;;2.58;;
81160;SDS011;70637;48.514;14.500;2024-01-06T09:26:47;5.55;;;2.20;;
81160;SDS011;70637;48.514;14.500;2024-01-06T09:29:15;9.57;;;2.47;;
81160;SDS011;70637;48.514;14.500;2024-01-06T09:31:41;5.43;;;2.10;;
81160;SDS011;70637;48.514;14.500;2024-01-06T09:34:09;8.40;;;2.10;;
81160;SDS011;70637;48.514;14.500;2024-01-06T09:36:35;7.30;;;2.17;;
81160;SDS011;70637;48.514;14.500;2024-01-06T09:39:00;7.60;;;2.40;;
81160;SDS011;70637;48.514;14.500;2024-01-06T09:41:26;6.03;;;2.50;;
81160;SDS011;70637;48.514;14.500;2024-01-06T09:43:52;5.38;;;1.95;;
81160;SDS011;70637;48.514;14.500;2024-01-06T09:46:21;6.72;;;2.30;;
81160;SDS011;70637;48.514;14.500;2024-01-06T09:48:51;7.57;;;2.00;;
81160;SDS011;70637;48.514;14.500;2024-01-06T09:51:21;7.05;;;2.15;;
81160;SDS011;70637;48.514;14.500;2024-01-06T09:54:00;8.73;;;2.33;;
81160;SDS011;70637;48.514;14.500;2024-01-06T09:56:28;14.00;;;2.40;;
81160;SDS011;70637;48.514;14.500;2024-01-06T09:58:54;10.88;;;2.15;;
81160;SDS011;70637;48.514;14.500;2024-01-06T10:01:21;5.82;;;2.17;;
81160;SDS011;70637;48.514;14.500;2024-01-06T10:03:47;6.63;;;1.98;;
81160;SDS011;70637;48.514;14.500;2024-01-06T10:06:13;8.65;;;2.30;;
81160;SDS011;70637;48.514;14.500;2024-01-06T10:08:46;6.78;;;2.17;;
81160;SDS011;70637;48.514;14.500;2024-01-06T10:11:20;7.60;;;2.38;;
81160;SDS011;70637;48.514;14.500;2024-01-06T10:13:50;7.80;;;2.40;;
81160;SDS011;70637;48.514;14.500;2024-01-06T10:16:16;6.55;;;2.22;;
81160;SDS011;70637;48.514;14.500;2024-01-06T10:18:43;6.60;;;2.53;;
81160;SDS011;70637;48.514;14.500;2024-01-06T10:21:09;6.20;;;2.42;;
81160;SDS011;70637;48.514;14.500;2024-01-06T10:23:35;10.00;;;2.38;;
81160;SDS011;70637;48.514;14.500;2024-01-06T10:26:01;6.13;;;2.28;;
81160;SDS011;70637;48.514;14.500;2024-01-06T10:28:28;9.07;;;2.20;;
81160;SDS011;70637;48.514;14.500;2024-01-06T10:30:56;9.52;;;2.65;;
81160;SDS011;70637;48.514;14.500;2024-01-06T10:33:23;7.05;;;3.00;;
81160;SDS011;70637;48.514;14.500;2024-01-06T10:35:49;9.23;;;2.80;;
81160;SDS011;70637;48.514;14.500;2024-01-06T10:38:15;11.55;;;3.55;;
81160;SDS011;70637;48.514;14.500;2024-01-06T10:40:55;9.18;;;3.65;;
81160;SDS011;70637;48.514;14.500;2024-01-06T10:43:24;9.65;;;3.90;;
81160;SDS011;70637;48.514;14.500;2024-01-06T10:45:52;12.60;;;4.53;;
81160;SDS011;70637;48.514;14.500;2024-01-06T10:48:20;15.45;;;5.47;;
81160;SDS011;70637;48.514;14.500;2024-01-06T10:50:47;13.30;;;5.93;;
81160;SDS011;70637;48.514;14.500;2024-01-06T10:53:14;18.08;;;5.95;;
81160;SDS011;70637;48.514;14.500;2024-01-06T10:55:42;16.50;;;6.20;;
81160;SDS011;70637;48.514;14.500;2024-01-06T10:58:08;13.13;;;6.18;;
81160;SDS011;70637;48.514;14.500;2024-01-06T11:00:35;17.35;;;7.20;;
81160;SDS011;70637;48.514;14.500;2024-01-06T11:03:01;15.27;;;7.18;;
81160;SDS011;70637;48.514;14.500;2024-01-06T11:05:29;23.17;;;8.05;;
81160;SDS011;70637;48.514;14.500;2024-01-06T11:07:57;16.30;;;7.00;;
81160;SDS011;70637;48.514;14.500;2024-01-06T11:10:26;18.95;;;7.57;;
81160;SDS011;70637;48.514;14.500;2024-01-06T11:13:10;19.77;;;7.60;;
81160;SDS011;70637;48.514;14.500;2024-01-06T11:15:44;17.17;;;8.95;;
81160;SDS011;70637;48.514;14.500;2024-01-06T11:18:30;21.90;;;10.65;;
81160;SDS011;70637;48.514;14.500;2024-01-06T11:21:16;26.55;;;13.75;;
81160;SDS011;70637;48.514;14.500;2024-01-06T11:26:44;26.20;;;15.35;;
81160;SDS011;70637;48.514;14.500;2024-01-06T11:29:10;29.23;;;16.17;;
81160;SDS011;70637;48.514;14.500;2024-01-06T11:31:36;28.23;;;16.83;;
81160;SDS011;70637;48.514;14.500;2024-01-06T11:34:15;32.10;;;18.33;;
81160;SDS011;70637;48.514;14.500;2024-01-06T11:36:45;28.73;;;17.33;;
81160;SDS011;70637;48.514;14.500;2024-01-06T11:42:03;34.65;;;19.63;;
81160;SDS011;70637;48.514;14.500;2024-01-06T11:44:29;37.75;;;20.23;;
81160;SDS011;70637;48.514;14.500;2024-01-06T11:46:58;31.35;;;18.90;;
81160;SDS011;70637;48.514;14.500;2024-01-06T11:49:26;32.35;;;20.05;;
81160;SDS011;70637;48.514;14.500;2024-01-06T11:51:58;31.17;;;19.58;;
81160;SDS011;70637;48.514;14.500;2024-01-06T11:54:24;35.25;;;20.27;;
81160;SDS011;70637;48.514;14.500;2024-01-06T11:56:50;34.65;;;18.42;;
81160;SDS011;70637;48.514;14.500;2024-01-06T11:59:19;33.85;;;18.13;;
81160;SDS011;70637;48.514;14.500;2024-01-06T12:01:45;32.25;;;19.02;;
81160;SDS011;70637;48.514;14.500;2024-01-06T12:04:13;32.55;;;17.48;;
81160;SDS011;70637;48.514;14.500;2024-01-06T12:06:40;28.45;;;17.27;;
81160;SDS011;70637;48.514;14.500;2024-01-06T12:09:06;27.17;;;16.88;;
81160;SDS011;70637;48.514;14.500;2024-01-06T12:11:32;26.02;;;16.45;;
81160;SDS011;70637;48.514;14.500;2024-01-06T12:13:58;27.33;;;16.13;;
81160;SDS011;70637;48.514;14.500;2024-01-06T12:16:24;25.15;;;16.48;;
81160;SDS011;70637;48.514;14.500;2024-01-06T12:18:55;24.15;;;14.90;;
81160;SDS011;70637;48.514;14.500;2024-01-06T12:21:22;25.77;;;15.40;;
81160;SDS011;70637;48.514;14.500;2024-01-06T12:23:48;26.80;;;15.70;;
81160;SDS011;70637;48.514;14.500;2024-01-06T12:26:16;24.10;;;14.75;;
81160;SDS011;70637;48.514;14.500;2024-01-06T12:28:44;23.08;;;14.60;;
81160;SDS011;70637;48.514;14.500;2024-01-06T12:31:17;21.63;;;14.52;;
81160;SDS011;70637;48.514;14.500;2024-01-06T12:33:44;23.30;;;14.15;;
81160;SDS011;70637;48.514;14.500;2024-01-06T12:36:09;22.45;;;14.30;;
81160;SDS011;70637;48.514;14.500;2024-01-06T12:38:36;24.60;;;13.90;;
81160;SDS011;70637;48.514;14.500;2024-01-06T12:41:04;21.95;;;12.93;;
81160;SDS011;70637;48.514;14.500;2024-01-06T12:43:30;21.73;;;12.85;;
81160;SDS011;70637;48.514;14.500;2024-01-06T12:45:55;19.73;;;12.02;;
81160;SDS011;70637;48.514;14.500;2024-01-06T12:48:23;20.63;;;13.13;;
81160;SDS011;70637;48.514;14.500;2024-01-06T12:50:49;20.50;;;12.40;;
81160;SDS011;70637;48.514;14.500;2024-01-06T12:53:14;21.02;;;12.18;;
81160;SDS011;70637;48.514;14.500;2024-01-06T12:55:42;19.05;;;11.50;;
81160;SDS011;70637;48.514;14.500;2024-01-06T12:58:08;19.63;;;12.13;;
81160;SDS011;70637;48.514;14.500;2024-01-06T13:00:34;19.95;;;11.60;;
81160;SDS011;70637;48.514;14.500;2024-01-06T13:02:59;19.15;;;10.88;;
81160;SDS011;70637;48.514;14.500;2024-01-06T13:05:25;18.77;;;12.07;;
81160;SDS011;70637;48.514;14.500;2024-01-06T13:07:50;19.38;;;11.68;;
81160;SDS011;70637;48.514;14.500;2024-01-06T13:10:16;18.65;;;10.95;;
81160;SDS011;70637;48.514;14.500;2024-01-06T13:12:42;15.05;;;10.38;;
81160;SDS011;70637;48.514;14.500;2024-01-06T13:15:08;16.45;;;10.85;;
81160;SDS011;70637;48.514;14.500;2024-01-06T13:17:39;18.55;;;10.70;;
81160;SDS011;70637;48.514;14.500;2024-01-06T13:20:05;17.95;;;10.75;;
81160;SDS011;70637;48.514;14.500;2024-01-06T13:22:32;17.40;;;10.90;;
81160;SDS011;70637;48.514;14.500;2024-01-06T13:24:58;17.67;;;10.82;;
81160;SDS011;70637;48.514;14.500;2024-01-06T13:27:24;19.98;;;10.88;;
81160;SDS011;70637;48.514;14.500;2024-01-06T13:29:52;16.50;;;10.48;;
81160;SDS011;70637;48.514;14.500;2024-01-06T13:32:18;17.52;;;9.68;;
81160;SDS011;70637;48.514;14.500;2024-01-06T13:34:45;15.88;;;9.88;;
81160;SDS011;70637;48.514;14.500;2024-01-06T13:37:10;18.38;;;10.20;;
81160;SDS011;70637;48.514;14.500;2024-01-06T13:39:36;16.05;;;9.68;;
81160;SDS011;70637;48.514;14.500;2024-01-06T13:42:02;15.98;;;9.40;;
81160;SDS011;70637;48.514;14.500;2024-01-06T13:44:31;14.77;;;9.32;;
81160;SDS011;70637;48.514;14.500;2024-01-06T13:46:57;15.60;;;9.32;;
81160;SDS011;70637;48.514;14.500;2024-01-06T13:49:22;16.90;;;9.23;;
81160;SDS011;70637;48.514;14.500;2024-01-06T13:51:51;15.55;;;9.13;;
81160;SDS011;70637;48.514;14.500;2024-01-06T13:54:18;14.40;;;8.65;;
81160;SDS011;70637;48.514;14.500;2024-01-06T13:56:44;16.80;;;9.30;;
81160;SDS011;70637;48.514;14.500;2024-01-06T13:59:10;17.10;;;9.95;;
81160;SDS011;70637;48.514;14.500;2024-01-06T14:01:35;13.93;;;8.05;;
81160;SDS011;70637;48.514;14.500;2024-01-06T14:04:02;14.35;;;9.00;;
81160;SDS011;70637;48.514;14.500;2024-01-06T14:06:30;13.23;;;8.38;;
81160;SDS011;70637;48.514;14.500;2024-01-06T14:08:56;12.40;;;8.27;;
81160;SDS011;70637;48.514;14.500;2024-01-06T14:11:23;11.07;;;7.40;;
81160;SDS011;70637;48.514;14.500;2024-01-06T14:13:50;15.75;;;8.48;;
81160;SDS011;70637;48.514;14.500;2024-01-06T14:16:16;12.73;;;7.80;;
81160;SDS011;70637;48.514;14.500;2024-01-06T14:18:42;13.20;;;7.85;;
81160;SDS011;70637;48.514;14.500;2024-01-06T14:21:11;16.08;;;8.40;;
81160;SDS011;70637;48.514;14.500;2024-01-06T14:23:40;14.70;;;8.23;;
81160;SDS011;70637;48.514;14.500;2024-01-06T14:26:06;10.45;;;7.07;;
81160;SDS011;70637;48.514;14.500;2024-01-06T14:28:32;12.27;;;7.68;;
81160;SDS011;70637;48.514;14.500;2024-01-06T14:30:58;14.85;;;8.07;;
81160;SDS011;70637;48.514;14.500;2024-01-06T14:33:23;14.32;;;7.57;;
81160;SDS011;70637;48.514;14.500;2024-01-06T14:35:49;13.32;;;7.53;;
81160;SDS011;70637;48.514;14.500;2024-01-06T14:38:15;12.98;;;8.02;;